KAUG/AUG METAR and TAF weather

Enter ICAO airport designator
Station Type Date Time Source
KAUG METAR 2019/06/26 21:53 UTC NOAA

KAUG 262153Z AUTO 08006KT 10SM OVC012 19/16 A3003 RMK AO2 SLP170 T01890161


Station Type Date Time Source
KAUG Decoded METAR 2019/06/26 21:53 UTC NOAA

AUGUSTA STATE AIRPORT, ME, United States (KAUG) 44-19N 069-48W 109M
Jun 26, 2019 - 05:53 PM EDT / 2019.06.26 2153 UTC
Wind: from the E (080 degrees) at 7 MPH (6 KT):0
Visibility: 10 mile(s):0
Sky conditions: overcast
Temperature: 66.0 F (18.9 C)
Dew Point: 61.0 F (16.1 C)
Relative Humidity: 83%
Pressure (altimeter): 30.03 in. Hg (1016 hPa)
ob: KAUG 262153Z AUTO 08006KT 10SM OVC012 19/16 A3003 RMK AO2 SLP170 T01890161
cycle: 22

Station Type Date Time Source
KAUG TAF 2019/06/26 21:48 UTC NOAA

TAF
AMD KAUG 262045Z 2621/2718 VRB04KT P6SM BKN010
FM270100 VRB03KT 6SM BR BKN006 OVC015
FM270600 VRB03KT 1/4SM FG VV001
FM271300 00000KT P6SM BKN004 OVC015

Example: see airport list